createdAt,value
2023-05-19T00:00:30.806Z,1.80
2023-05-19T00:05:33.549Z,1.40
2023-05-19T00:10:35.350Z,1.55
2023-05-19T00:15:37.105Z,1.55
2023-05-19T00:20:38.884Z,1.90
2023-05-19T00:25:40.444Z,1.75
2023-05-19T00:30:41.944Z,2.15
2023-05-19T00:35:43.505Z,1.67
2023-05-19T00:40:45.587Z,1.35
2023-05-19T00:45:47.302Z,2.42
2023-05-19T00:50:50.833Z,1.70
2023-05-19T00:55:52.341Z,1.90
2023-05-19T01:00:56.118Z,1.65
2023-05-19T01:06:01.589Z,2.28
2023-05-19T01:11:04.172Z,1.85
2023-05-19T01:16:13.991Z,1.98
2023-05-19T01:21:38.430Z,1.55
2023-05-19T01:27:26.862Z,1.30
2023-05-19T01:32:30.027Z,2.03
2023-05-19T01:37:32.222Z,1.95
2023-05-19T01:42:37.352Z,1.50
2023-05-19T01:47:42.748Z,1.73
2023-05-19T01:52:44.363Z,1.45
2023-05-19T01:58:05.092Z,1.42
2023-05-19T02:03:26.027Z,1.60
2023-05-19T02:08:31.196Z,3.22
2023-05-19T02:13:37.842Z,1.77
2023-05-19T02:18:40.545Z,1.55
2023-05-19T02:23:42.156Z,1.65
2023-05-19T02:28:43.684Z,1.70
2023-05-19T02:33:45.185Z,1.45
2023-05-19T02:38:46.691Z,1.90
2023-05-19T02:43:48.190Z,1.98
2023-05-19T02:48:50.812Z,1.85
2023-05-19T02:53:52.322Z,1.58
2023-05-19T02:58:53.842Z,1.73
2023-05-19T03:03:55.774Z,1.70
2023-05-19T03:08:57.293Z,1.20
2023-05-19T03:13:58.897Z,2.05
2023-05-19T03:19:00.575Z,1.55
2023-05-19T03:24:02.503Z,1.50
2023-05-19T03:29:04.507Z,1.23
2023-05-19T03:34:09.765Z,2.15
2023-05-19T03:39:12.081Z,1.63
2023-05-19T03:44:14.295Z,1.90
2023-05-19T03:49:15.893Z,1.50
2023-05-19T03:54:32.599Z,1.67
2023-05-19T03:59:35.350Z,1.60
2023-05-19T04:04:38.605Z,1.50
2023-05-19T04:09:40.170Z,1.45
2023-05-19T04:14:41.657Z,1.70
2023-05-19T04:19:45.024Z,1.60
2023-05-19T04:24:47.124Z,1.60
2023-05-19T04:29:49.941Z,1.77
2023-05-19T04:34:51.765Z,1.90
2023-05-19T04:39:58.352Z,1.98
2023-05-19T04:45:03.527Z,2.00
2023-05-19T04:50:07.475Z,2.88
2023-05-19T04:55:11.188Z,2.45
2023-05-19T05:00:14.213Z,2.28
2023-05-19T05:05:37.464Z,2.40
2023-05-19T05:10:44.226Z,2.40
2023-05-19T05:15:59.504Z,2.38
2023-05-19T05:21:09.296Z,2.20
2023-05-19T05:26:18.737Z,2.72
2023-05-19T05:31:22.928Z,2.25
2023-05-19T05:36:24.482Z,2.10
2023-05-19T05:41:27.423Z,2.50
2023-05-19T05:46:32.328Z,2.50
2023-05-19T05:51:34.727Z,2.05
2023-05-19T05:56:37.596Z,3.13
2023-05-19T06:01:43.870Z,2.38
2023-05-19T06:06:46.297Z,2.70
2023-05-19T06:11:53.284Z,2.92
2023-05-19T06:16:55.658Z,2.42
2023-05-19T06:21:57.289Z,2.63
2023-05-19T06:26:59.470Z,2.40
2023-05-19T06:32:01.239Z,2.90
2023-05-19T06:37:03.771Z,2.30
2023-05-19T06:42:07.984Z,2.40
2023-05-19T06:47:29.280Z,1.98
2023-05-19T06:52:31.232Z,2.28
2023-05-19T06:57:32.997Z,2.22
2023-05-19T07:02:35.974Z,2.47
2023-05-19T07:07:38.722Z,2.42
2023-05-19T07:12:44.465Z,2.63
2023-05-19T07:17:47.176Z,2.70
2023-05-19T07:22:48.882Z,2.08
2023-05-19T07:27:50.955Z,2.90
2023-05-19T07:32:52.636Z,2.65
2023-05-19T07:37:56.523Z,2.40
2023-05-19T07:42:58.109Z,3.10
2023-05-19T07:47:59.620Z,2.40
2023-05-19T07:53:01.201Z,2.00
2023-05-19T07:58:02.702Z,1.75
2023-05-19T08:03:04.365Z,1.60
2023-05-19T08:08:06.119Z,1.85
2023-05-19T08:13:08.295Z,1.83
2023-05-19T08:18:11.236Z,1.52
2023-05-19T08:23:12.857Z,2.08
2023-05-19T08:28:14.413Z,2.05
2023-05-19T08:33:16.241Z,1.83
2023-05-19T08:38:17.727Z,1.83
2023-05-19T08:43:19.354Z,1.83
2023-05-19T08:48:22.070Z,1.73
2023-05-19T08:53:33.888Z,1.63
2023-05-19T08:58:37.295Z,1.67
2023-05-19T09:03:39.772Z,2.10
2023-05-19T09:08:42.290Z,2.20
2023-05-19T09:13:43.948Z,1.67
2023-05-19T09:18:56.483Z,2.00
2023-05-19T09:24:05.086Z,2.28
2023-05-19T09:29:16.447Z,1.23
2023-05-19T09:34:18.661Z,2.10
2023-05-19T09:39:21.930Z,1.80
2023-05-19T09:44:24.561Z,1.90
2023-05-19T09:49:32.780Z,2.38
2023-05-19T09:54:34.625Z,1.88
2023-05-19T09:59:38.845Z,1.88
2023-05-19T10:04:42.293Z,2.15
2023-05-19T10:09:44.780Z,1.65
2023-05-19T10:14:48.692Z,1.83
2023-05-19T10:19:52.205Z,2.17
2023-05-19T10:24:55.895Z,1.88
2023-05-19T10:30:02.074Z,1.45
2023-05-19T10:35:20.521Z,1.40
2023-05-19T10:40:28.473Z,1.50
2023-05-19T10:45:34.456Z,1.88
2023-05-19T10:50:37.770Z,2.13
2023-05-19T10:55:53.283Z,1.77
2023-05-19T11:01:00.924Z,1.65
2023-05-19T11:06:29.006Z,1.55
2023-05-19T11:11:44.897Z,2.20
2023-05-19T11:16:48.243Z,1.50
2023-05-19T11:21:55.224Z,1.50
2023-05-19T11:32:00.629Z,1.45
2023-05-19T11:37:02.793Z,1.65
2023-05-19T11:42:04.506Z,1.38
2023-05-19T11:47:06.249Z,1.40
2023-05-19T11:52:09.092Z,1.98
2023-05-19T11:57:10.936Z,1.60
2023-05-19T12:02:28.008Z,1.50
2023-05-19T12:07:29.600Z,1.60
2023-05-19T12:12:32.027Z,1.55
2023-05-19T12:17:38.337Z,1.63
2023-05-19T12:22:39.882Z,1.33
2023-05-19T12:27:43.381Z,1.27
2023-05-19T12:32:46.785Z,1.48
2023-05-19T12:37:49.153Z,1.55
2023-05-19T12:42:53.409Z,1.70
2023-05-19T12:47:55.324Z,1.45
2023-05-19T12:52:58.410Z,1.98
2023-05-19T12:58:07.172Z,1.33
2023-05-19T13:03:15.961Z,1.55
2023-05-19T13:08:20.216Z,2.05
2023-05-19T13:13:22.051Z,1.77
2023-05-19T13:18:24.383Z,2.00
2023-05-19T13:23:26.325Z,2.40
2023-05-19T13:28:28.245Z,2.53
2023-05-19T13:33:29.764Z,2.30
2023-05-19T13:38:31.255Z,2.17
2023-05-19T13:43:32.739Z,2.83
2023-05-19T13:48:34.219Z,2.63
2023-05-19T13:53:35.786Z,2.63
2023-05-19T13:58:37.298Z,2.30
2023-05-19T14:03:38.881Z,2.30
2023-05-19T14:08:41.231Z,2.40
2023-05-19T14:13:43.411Z,2.10
2023-05-19T14:18:44.985Z,1.80
2023-05-19T14:23:46.588Z,2.20
2023-05-19T14:28:48.067Z,1.80
2023-05-19T14:33:49.793Z,2.00
2023-05-19T14:38:51.271Z,1.80
2023-05-19T14:43:52.794Z,1.73
2023-05-19T14:48:54.373Z,1.98
2023-05-19T14:53:56.341Z,1.95
2023-05-19T14:58:57.862Z,2.15
2023-05-19T15:03:59.392Z,2.15
2023-05-19T15:09:00.941Z,2.20
2023-05-19T15:14:02.434Z,2.65
2023-05-19T15:19:04.037Z,2.60
2023-05-19T15:24:05.854Z,2.92
2023-05-19T15:29:07.347Z,2.65
2023-05-19T15:34:08.913Z,2.42
2023-05-19T15:39:10.382Z,2.17
2023-05-19T15:44:12.013Z,2.20
2023-05-19T15:49:13.585Z,2.38
2023-05-19T15:54:15.154Z,3.00
2023-05-19T15:59:16.648Z,2.20
2023-05-19T16:04:18.169Z,2.40
2023-05-19T16:09:19.704Z,2.40
2023-05-19T16:14:21.193Z,2.45
2023-05-19T16:19:23.901Z,1.77
2023-05-19T16:24:25.502Z,2.30
2023-05-19T16:29:27.074Z,2.22
2023-05-19T16:34:30.580Z,2.88
2023-05-19T16:39:32.343Z,2.67
2023-05-19T16:44:33.819Z,2.50
2023-05-19T16:49:35.295Z,2.55
2023-05-19T16:54:36.978Z,2.70
2023-05-19T16:59:38.456Z,2.25
2023-05-19T17:04:39.938Z,2.47
2023-05-19T17:09:42.321Z,2.20
2023-05-19T17:14:44.162Z,2.50
2023-05-19T17:19:46.032Z,2.50
2023-05-19T17:24:47.515Z,3.03
2023-05-19T17:29:49.157Z,2.80
2023-05-19T17:34:50.772Z,3.10
2023-05-19T17:39:52.375Z,3.63
2023-05-19T17:44:53.921Z,2.85
2023-05-19T17:49:55.682Z,2.65
2023-05-19T17:54:57.384Z,3.35
2023-05-19T17:59:59.826Z,3.10
2023-05-19T18:05:01.776Z,3.10
2023-05-19T18:10:05.061Z,3.67
2023-05-19T18:15:06.846Z,2.90
2023-05-19T18:20:08.753Z,2.78
2023-05-19T18:25:10.256Z,3.10
2023-05-19T18:30:11.805Z,3.22
2023-05-19T18:35:13.290Z,2.95
2023-05-19T18:40:14.788Z,2.45
2023-05-19T18:45:16.313Z,2.90
2023-05-19T18:50:17.793Z,3.55
2023-05-19T18:55:19.287Z,3.10
2023-05-19T19:00:20.774Z,3.22
2023-05-19T19:05:22.281Z,3.03
2023-05-19T19:10:23.778Z,2.45
2023-05-19T19:15:25.977Z,2.60
2023-05-19T19:20:27.705Z,3.10
2023-05-19T19:25:29.221Z,3.83
2023-05-19T19:30:30.899Z,3.90
2023-05-19T19:35:32.408Z,5.07
2023-05-19T19:40:34.148Z,4.68
2023-05-19T19:45:39.139Z,4.50
2023-05-19T19:50:40.792Z,4.93
2023-05-19T19:55:43.033Z,5.90
2023-05-19T20:00:44.582Z,4.40
2023-05-19T20:05:46.070Z,5.57
2023-05-19T20:10:48.157Z,5.05
2023-05-19T20:15:49.993Z,4.65
2023-05-19T20:20:51.576Z,6.07
2023-05-19T20:26:10.144Z,7.03
2023-05-19T20:31:13.854Z,5.00
2023-05-19T20:36:15.616Z,5.82
2023-05-19T20:41:17.380Z,6.78
2023-05-19T20:46:18.887Z,6.63
2023-05-19T20:51:21.668Z,6.85
2023-05-19T20:56:23.258Z,7.30
2023-05-19T21:01:26.239Z,7.50
2023-05-19T21:06:27.834Z,7.80
2023-05-19T21:11:29.911Z,5.75
2023-05-19T21:16:31.923Z,5.32
2023-05-19T21:21:33.804Z,7.57
2023-05-19T21:26:35.620Z,6.97
2023-05-19T21:31:37.262Z,7.40
2023-05-19T21:36:38.853Z,6.10
2023-05-19T21:41:42.197Z,8.20
2023-05-19T21:46:43.803Z,6.85
2023-05-19T21:51:45.339Z,9.23
2023-05-19T21:56:46.844Z,6.22
2023-05-19T22:01:48.398Z,7.15
2023-05-19T22:06:49.899Z,7.82
2023-05-19T22:11:51.718Z,6.20
2023-05-19T22:16:53.314Z,8.48
2023-05-19T22:22:01.921Z,7.03
2023-05-19T22:27:04.077Z,7.13
2023-05-19T22:32:07.600Z,6.20
2023-05-19T22:37:09.096Z,7.65
2023-05-19T22:42:10.587Z,7.95
2023-05-19T22:47:13.771Z,6.93
2023-05-19T22:52:15.619Z,6.10
2023-05-19T22:57:17.112Z,6.82
2023-05-19T23:02:19.743Z,7.35
2023-05-19T23:07:21.242Z,5.30
2023-05-19T23:12:22.722Z,7.95
2023-05-19T23:17:24.259Z,7.78
2023-05-19T23:22:25.862Z,5.15
2023-05-19T23:27:27.352Z,5.80
2023-05-19T23:32:29.051Z,6.20
2023-05-19T23:37:30.694Z,8.70
2023-05-19T23:42:32.205Z,7.15
2023-05-19T23:47:33.717Z,6.88
2023-05-19T23:52:35.317Z,5.53
2023-05-19T23:57:36.815Z,4.78
